createdAt,value
2022-10-19T00:00:49.091Z,9.55
2022-10-19T00:02:50.547Z,10.50
2022-10-19T00:04:52.038Z,8.88
2022-10-19T00:06:53.698Z,9.48
2022-10-19T00:08:58.160Z,8.98
2022-10-19T00:11:01.303Z,10.52
2022-10-19T00:13:02.762Z,10.63
2022-10-19T00:15:05.551Z,8.63
2022-10-19T00:17:07.043Z,8.73
2022-10-19T00:19:12.028Z,8.05
2022-10-19T00:21:15.934Z,8.38
2022-10-19T00:23:17.434Z,7.30
2022-10-19T00:25:19.021Z,7.60
2022-10-19T00:27:20.498Z,8.02
2022-10-19T00:29:22.067Z,7.93
2022-10-19T00:31:24.977Z,8.57
2022-10-19T00:33:26.509Z,8.80
2022-10-19T00:35:28.038Z,8.30
2022-10-19T00:37:29.960Z,7.20
2022-10-19T00:39:31.493Z,7.55
2022-10-19T00:41:34.161Z,7.03
2022-10-19T00:43:55.780Z,6.88
2022-10-19T00:45:57.287Z,6.55
2022-10-19T00:47:58.755Z,6.65
2022-10-19T00:50:00.462Z,6.55
2022-10-19T00:52:05.335Z,7.60
2022-10-19T00:54:08.059Z,7.35
2022-10-19T00:56:15.240Z,6.60
2022-10-19T00:58:16.790Z,7.18
2022-10-19T01:00:18.416Z,6.05
2022-10-19T01:02:19.951Z,5.88
2022-10-19T01:04:22.710Z,5.93
2022-10-19T01:06:24.986Z,5.40
2022-10-19T01:08:27.122Z,6.57
2022-10-19T01:10:39.945Z,5.55
2022-10-19T01:13:06.199Z,7.20
2022-10-19T01:15:19.884Z,6.78
2022-10-19T01:17:50.164Z,7.43
2022-10-19T01:20:25.727Z,9.27
2022-10-19T01:22:47.370Z,8.38
2022-10-19T01:25:26.298Z,9.32
2022-10-19T01:27:32.834Z,10.02
2022-10-19T01:29:59.509Z,9.65
2022-10-19T01:32:16.358Z,11.27
2022-10-19T01:34:47.790Z,9.80
2022-10-19T01:37:12.421Z,8.85
2022-10-19T01:39:26.357Z,7.80
2022-10-19T01:41:31.977Z,6.60
2022-10-19T01:43:57.476Z,8.43
2022-10-19T01:46:06.673Z,7.25
2022-10-19T01:48:13.945Z,6.70
2022-10-19T01:50:31.778Z,6.55
2022-10-19T01:52:33.676Z,6.93
2022-10-19T01:54:39.743Z,8.07
2022-10-19T01:56:43.266Z,6.45
2022-10-19T01:58:45.638Z,6.80
2022-10-19T02:00:48.944Z,6.85
2022-10-19T02:02:53.470Z,9.75
2022-10-19T02:04:56.895Z,6.72
2022-10-19T02:06:58.977Z,6.50
2022-10-19T02:09:00.606Z,7.65
2022-10-19T02:11:03.192Z,6.10
2022-10-19T02:13:05.227Z,7.05
2022-10-19T02:15:11.374Z,7.13
2022-10-19T02:17:15.655Z,6.50
2022-10-19T02:19:18.498Z,7.65
2022-10-19T02:21:20.230Z,7.32
2022-10-19T02:23:24.302Z,6.60
2022-10-19T02:25:26.196Z,8.15
2022-10-19T02:27:27.834Z,8.32
2022-10-19T02:29:29.354Z,8.35
2022-10-19T02:31:30.924Z,9.73
2022-10-19T02:33:32.463Z,9.77
2022-10-19T02:35:33.997Z,9.52
2022-10-19T02:39:39.056Z,10.95
2022-10-19T02:42:11.344Z,10.32
2022-10-19T02:44:22.123Z,7.97
2022-10-19T02:46:29.169Z,8.15
2022-10-19T02:48:32.315Z,7.85
2022-10-19T02:50:34.315Z,7.57
2022-10-19T02:52:40.427Z,7.85
2022-10-19T02:54:44.052Z,9.98
2022-10-19T02:56:45.509Z,9.10
2022-10-19T02:58:46.950Z,9.32
2022-10-19T03:00:48.549Z,9.27
2022-10-19T03:02:50.129Z,9.32
2022-10-19T03:04:51.627Z,9.85
2022-10-19T03:06:53.070Z,10.00
2022-10-19T03:08:54.519Z,9.85
2022-10-19T03:10:59.127Z,11.38
2022-10-19T03:13:00.650Z,10.13
2022-10-19T03:15:02.194Z,10.45
2022-10-19T03:17:04.154Z,11.77
2022-10-19T03:19:06.356Z,11.88
2022-10-19T03:21:10.683Z,12.65
2022-10-19T03:23:12.139Z,11.88
2022-10-19T03:25:13.718Z,12.95
2022-10-19T03:27:15.209Z,15.38
2022-10-19T03:29:16.719Z,13.85
2022-10-19T03:31:19.023Z,16.40
2022-10-19T03:33:20.582Z,16.42
2022-10-19T03:35:22.162Z,14.73
2022-10-19T03:37:23.641Z,14.73
2022-10-19T03:39:25.799Z,15.15
2022-10-19T03:41:29.523Z,14.95
2022-10-19T03:43:31.212Z,15.00
2022-10-19T03:45:32.775Z,16.10
2022-10-19T03:47:34.354Z,15.88
2022-10-19T03:49:38.121Z,17.77
2022-10-19T03:51:41.783Z,16.65
2022-10-19T03:53:43.875Z,15.68
2022-10-19T03:55:45.404Z,16.65
2022-10-19T03:57:46.867Z,14.88
2022-10-19T03:59:48.947Z,17.52
2022-10-19T04:01:50.429Z,16.83
2022-10-19T04:03:56.369Z,17.58
2022-10-19T04:06:24.842Z,17.55
2022-10-19T04:08:26.335Z,16.83
2022-10-19T04:10:27.824Z,17.10
2022-10-19T04:12:29.298Z,17.67
2022-10-19T04:14:32.430Z,18.15
2022-10-19T04:16:40.789Z,17.35
2022-10-19T04:18:42.663Z,15.05
2022-10-19T04:20:44.178Z,17.17
2022-10-19T04:22:45.689Z,17.50
2022-10-19T04:24:47.171Z,18.13
2022-10-19T04:26:50.664Z,17.55
2022-10-19T04:28:52.163Z,18.63
2022-10-19T04:30:53.700Z,17.05
2022-10-19T04:32:55.242Z,18.00
2022-10-19T04:34:56.866Z,18.40
2022-10-19T04:36:59.535Z,19.33
2022-10-19T04:39:01.121Z,17.58
2022-10-19T04:41:05.166Z,18.88
2022-10-19T04:43:06.660Z,18.67
2022-10-19T04:45:08.587Z,17.98
2022-10-19T04:47:10.077Z,17.65
2022-10-19T04:49:14.127Z,19.15
2022-10-19T04:51:20.007Z,16.73
2022-10-19T04:53:21.851Z,16.98
2022-10-19T04:55:23.379Z,17.75
2022-10-19T04:57:24.853Z,17.02
2022-10-19T04:59:26.396Z,15.63
2022-10-19T05:01:29.880Z,16.25
2022-10-19T05:03:31.368Z,16.30
2022-10-19T05:05:33.206Z,18.73
2022-10-19T05:07:34.941Z,17.48
2022-10-19T05:09:37.264Z,17.35
2022-10-19T05:11:38.803Z,20.73
2022-10-19T05:13:41.149Z,19.58
2022-10-19T05:15:42.798Z,18.98
2022-10-19T05:17:44.259Z,18.98
2022-10-19T05:19:45.756Z,21.27
2022-10-19T05:21:47.219Z,20.02
2022-10-19T05:23:52.224Z,19.73
2022-10-19T05:26:13.050Z,20.80
2022-10-19T05:28:14.515Z,19.02
2022-10-19T05:30:16.025Z,18.95
2022-10-19T05:32:17.543Z,19.35
2022-10-19T05:34:19.189Z,20.98
2022-10-19T05:36:29.646Z,21.27
2022-10-19T05:38:31.125Z,19.13
2022-10-19T05:40:32.626Z,21.02
2022-10-19T05:42:34.079Z,21.65
2022-10-19T05:44:36.084Z,20.77
2022-10-19T05:46:37.598Z,20.50
2022-10-19T05:48:39.947Z,21.33
2022-10-19T05:50:41.486Z,21.42
2022-10-19T05:52:43.039Z,21.52
2022-10-19T05:54:44.579Z,22.13
2022-10-19T05:56:46.917Z,22.05
2022-10-19T05:58:49.309Z,19.75
2022-10-19T06:00:55.385Z,22.33
2022-10-19T06:02:59.116Z,21.85
2022-10-19T06:05:00.963Z,22.90
2022-10-19T06:07:02.482Z,24.15
2022-10-19T06:09:04.441Z,24.08
2022-10-19T06:11:11.346Z,22.90
2022-10-19T06:13:14.114Z,22.58
2022-10-19T06:15:15.715Z,24.98
2022-10-19T06:17:17.302Z,24.08
2022-10-19T06:19:19.084Z,24.90
2022-10-19T06:21:22.917Z,24.77
2022-10-19T06:23:24.416Z,23.83
2022-10-19T06:25:32.038Z,23.58
2022-10-19T06:27:33.864Z,26.67
2022-10-19T06:29:35.782Z,22.90
2022-10-19T06:31:38.355Z,23.02
2022-10-19T06:33:40.758Z,23.13
2022-10-19T06:35:45.068Z,23.17
2022-10-19T06:37:46.549Z,22.98
2022-10-19T06:39:48.136Z,23.90
2022-10-19T06:41:49.657Z,23.92
2022-10-19T06:43:52.557Z,21.38
2022-10-19T06:45:54.133Z,21.02
2022-10-19T06:47:55.592Z,21.67
2022-10-19T06:49:57.550Z,22.25
2022-10-19T06:51:59.074Z,19.08
2022-10-19T06:54:00.834Z,15.95
2022-10-19T06:56:05.410Z,17.20
2022-10-19T06:58:06.849Z,15.95
2022-10-19T07:00:08.933Z,16.50
2022-10-19T07:02:13.642Z,13.68
2022-10-19T07:04:15.132Z,14.95
2022-10-19T07:06:16.633Z,17.13
2022-10-19T07:08:18.108Z,16.45
2022-10-19T07:10:19.601Z,16.70
2022-10-19T07:12:21.105Z,18.60
2022-10-19T07:14:24.771Z,18.55
2022-10-19T07:16:26.216Z,19.65
2022-10-19T07:18:28.056Z,18.85
2022-10-19T07:20:29.580Z,18.50
2022-10-19T07:22:31.045Z,17.35
2022-10-19T07:24:32.629Z,18.83
2022-10-19T07:26:34.267Z,16.90
2022-10-19T07:28:35.779Z,20.25
2022-10-19T07:30:38.700Z,19.77
2022-10-19T07:32:44.397Z,20.15
2022-10-19T07:34:48.292Z,20.13
2022-10-19T07:36:49.846Z,19.13
2022-10-19T07:38:51.958Z,18.63
2022-10-19T07:41:02.765Z,17.88
2022-10-19T07:43:04.345Z,19.15
2022-10-19T07:45:06.432Z,18.10
2022-10-19T07:47:07.952Z,17.15
2022-10-19T07:49:13.211Z,17.55
2022-10-19T07:51:16.511Z,17.30
2022-10-19T07:53:18.098Z,15.95
2022-10-19T07:55:19.854Z,15.55
2022-10-19T07:57:22.424Z,16.80
2022-10-19T07:59:24.166Z,17.67
2022-10-19T08:01:29.969Z,16.27
2022-10-19T08:04:31.328Z,17.05
2022-10-19T08:05:53.116Z,17.65
2022-10-19T08:07:54.588Z,17.20
2022-10-19T08:09:56.203Z,16.80
2022-10-19T08:11:57.840Z,16.50
2022-10-19T08:13:59.722Z,15.40
2022-10-19T08:16:01.332Z,16.23
2022-10-19T08:18:02.844Z,17.80
2022-10-19T08:20:05.677Z,17.95
2022-10-19T08:22:07.144Z,16.33
2022-10-19T08:24:09.259Z,14.23
2022-10-19T08:26:10.743Z,15.32
2022-10-19T08:28:12.235Z,13.82
2022-10-19T08:30:13.768Z,15.88
2022-10-19T08:32:15.283Z,15.23
2022-10-19T08:34:16.850Z,14.55
2022-10-19T08:36:19.791Z,12.73
2022-10-19T08:38:21.375Z,13.70
2022-10-19T08:40:28.495Z,13.95
2022-10-19T08:42:42.188Z,14.18
2022-10-19T08:44:49.934Z,14.48
2022-10-19T08:46:55.056Z,13.93
2022-10-19T08:48:56.539Z,11.25
2022-10-19T08:50:59.522Z,12.77
2022-10-19T08:53:04.029Z,14.10
2022-10-19T08:55:15.126Z,13.55
2022-10-19T08:57:32.699Z,12.68
2022-10-19T08:59:46.549Z,13.50
2022-10-19T09:01:55.480Z,14.18
2022-10-19T09:04:06.462Z,14.00
2022-10-19T09:06:41.513Z,14.15
2022-10-19T09:08:43.215Z,14.73
2022-10-19T09:10:47.773Z,15.98
2022-10-19T09:13:00.936Z,18.05
2022-10-19T09:15:16.398Z,17.38
2022-10-19T09:17:17.995Z,15.95
2022-10-19T09:19:26.231Z,17.30
2022-10-19T09:21:43.302Z,16.38
2022-10-19T09:24:05.853Z,18.05
2022-10-19T09:26:17.427Z,16.42
2022-10-19T09:28:29.175Z,16.40
2022-10-19T09:30:37.305Z,17.40
2022-10-19T09:32:39.532Z,14.88
2022-10-19T09:34:44.077Z,15.48
2022-10-19T09:36:50.961Z,14.48
2022-10-19T09:38:52.739Z,13.65
2022-10-19T09:40:55.720Z,15.57
2022-10-19T09:42:58.566Z,16.27
2022-10-19T09:45:06.662Z,15.30
2022-10-19T09:47:20.383Z,14.45
2022-10-19T09:49:41.819Z,13.00
2022-10-19T09:51:52.298Z,12.43
2022-10-19T09:53:54.998Z,14.07
2022-10-19T09:56:08.020Z,14.35
2022-10-19T09:58:15.475Z,13.95
2022-10-19T10:00:22.079Z,14.57
2022-10-19T10:02:31.932Z,15.57
2022-10-19T10:04:36.500Z,14.52
2022-10-19T10:06:39.422Z,15.77
2022-10-19T10:08:47.764Z,15.85
2022-10-19T10:11:07.321Z,14.82
2022-10-19T10:13:20.135Z,13.63
2022-10-19T10:15:25.780Z,15.98
2022-10-19T10:17:30.525Z,15.65
2022-10-19T10:19:33.791Z,15.15
2022-10-19T10:21:46.015Z,14.57
2022-10-19T10:24:05.614Z,14.57
2022-10-19T10:26:18.481Z,15.40
2022-10-19T10:28:22.355Z,15.77
2022-10-19T10:30:24.211Z,16.83
2022-10-19T10:32:26.627Z,17.75
2022-10-19T10:34:45.977Z,17.17
2022-10-19T10:36:53.742Z,18.60
2022-10-19T10:39:21.093Z,18.63
2022-10-19T10:41:23.808Z,16.33
2022-10-19T10:43:31.950Z,17.05
2022-10-19T10:45:34.507Z,16.88
2022-10-19T10:47:39.355Z,16.30
2022-10-19T10:49:42.701Z,16.58
2022-10-19T10:51:49.228Z,16.88
2022-10-19T10:54:17.255Z,16.15
2022-10-19T10:56:21.427Z,15.27
2022-10-19T10:58:47.876Z,16.02
2022-10-19T11:00:51.703Z,15.25
2022-10-19T11:03:02.469Z,16.05
2022-10-19T11:05:23.537Z,15.55
2022-10-19T11:07:26.708Z,15.13
2022-10-19T11:09:42.754Z,16.30
2022-10-19T11:11:46.642Z,15.50
2022-10-19T11:14:00.711Z,14.90
2022-10-19T11:16:17.015Z,13.88
2022-10-19T11:18:31.487Z,13.18
2022-10-19T11:20:34.759Z,17.13
2022-10-19T11:22:55.258Z,15.23
2022-10-19T11:25:18.077Z,15.98
2022-10-19T11:27:25.622Z,16.80
2022-10-19T11:29:37.098Z,13.73
2022-10-19T11:31:48.538Z,15.48
2022-10-19T11:34:07.742Z,15.43
2022-10-19T11:36:48.760Z,14.40
2022-10-19T11:38:57.073Z,16.33
2022-10-19T11:41:27.546Z,16.65
2022-10-19T11:43:38.786Z,15.85
2022-10-19T11:45:42.814Z,15.43
2022-10-19T11:47:52.215Z,15.45
2022-10-19T11:50:00.442Z,17.38
2022-10-19T11:52:08.913Z,17.13
2022-10-19T11:54:16.016Z,15.63
2022-10-19T11:57:01.855Z,17.05
2022-10-19T11:59:29.569Z,17.63
2022-10-19T12:01:46.313Z,16.30
2022-10-19T12:04:16.455Z,17.02
2022-10-19T12:06:25.663Z,16.65
2022-10-19T12:08:39.019Z,17.95
2022-10-19T12:10:52.184Z,18.83
2022-10-19T12:12:58.735Z,17.13
2022-10-19T12:15:23.969Z,15.95
2022-10-19T12:17:31.434Z,16.23
2022-10-19T12:19:38.398Z,18.17
2022-10-19T12:21:41.275Z,18.63
2022-10-19T12:23:46.676Z,17.23
2022-10-19T12:25:48.774Z,17.67
2022-10-19T12:27:51.543Z,18.77
2022-10-19T12:29:53.580Z,18.33
2022-10-19T12:31:56.470Z,19.85
2022-10-19T12:34:24.188Z,18.35
2022-10-19T12:36:54.594Z,20.98
2022-10-19T12:39:20.783Z,21.08
2022-10-19T12:41:43.261Z,20.23
2022-10-19T12:44:03.440Z,22.20
2022-10-19T12:46:13.921Z,19.90
2022-10-19T12:48:20.370Z,20.38
2022-10-19T12:50:51.510Z,21.27
2022-10-19T12:52:54.514Z,19.75
2022-10-19T12:55:19.355Z,20.52
2022-10-19T12:57:27.867Z,17.25
2022-10-19T12:59:31.899Z,18.70
2022-10-19T13:01:33.316Z,18.45
2022-10-19T13:03:41.226Z,16.67
2022-10-19T13:05:42.838Z,16.15
2022-10-19T13:07:48.470Z,13.38
2022-10-19T13:09:50.058Z,13.23
2022-10-19T13:12:21.722Z,13.82
2022-10-19T13:14:47.923Z,12.77
2022-10-19T13:16:56.851Z,10.48
2022-10-19T13:19:13.713Z,10.27
2022-10-19T13:21:51.302Z,8.50
2022-10-19T13:23:52.794Z,8.02
2022-10-19T13:26:24.202Z,6.90
2022-10-19T13:28:28.339Z,7.43
2022-10-19T13:30:38.688Z,6.68
2022-10-19T13:32:44.886Z,5.72
2022-10-19T13:34:47.132Z,6.80
2022-10-19T13:37:02.508Z,6.00
2022-10-19T13:39:07.746Z,5.15
2022-10-19T13:41:13.863Z,5.40
2022-10-19T13:43:21.289Z,6.55
2022-10-19T13:45:23.537Z,7.07
2022-10-19T13:47:33.427Z,9.85
2022-10-19T13:49:35.084Z,11.80
2022-10-19T13:52:03.948Z,12.48
2022-10-19T13:54:09.673Z,13.45
2022-10-19T13:56:20.810Z,13.32
2022-10-19T13:58:43.735Z,12.05
2022-10-19T14:01:17.075Z,13.05
2022-10-19T14:03:52.475Z,13.55
2022-10-19T14:06:02.984Z,14.02
2022-10-19T14:08:33.447Z,12.93
2022-10-19T14:10:56.295Z,14.55
2022-10-19T14:12:57.864Z,13.50
2022-10-19T14:15:00.401Z,13.25
2022-10-19T14:17:04.313Z,11.85
2022-10-19T14:19:13.667Z,13.40
2022-10-19T14:21:15.191Z,13.70
2022-10-19T14:23:23.765Z,12.10
2022-10-19T14:25:27.464Z,15.18
2022-10-19T14:27:30.112Z,12.65
2022-10-19T14:29:36.680Z,11.65
2022-10-19T14:31:38.839Z,12.27
2022-10-19T14:33:41.283Z,10.98
2022-10-19T14:35:46.280Z,11.05
2022-10-19T14:37:48.481Z,10.75
2022-10-19T14:40:06.439Z,11.50
2022-10-19T14:42:10.479Z,11.32
2022-10-19T14:44:37.487Z,11.90
2022-10-19T14:46:39.134Z,11.82
2022-10-19T14:48:46.105Z,12.25
2022-10-19T14:50:51.741Z,11.52
2022-10-19T14:52:58.811Z,11.25
2022-10-19T14:55:04.531Z,11.30
2022-10-19T14:57:17.073Z,11.35
2022-10-19T14:59:25.766Z,11.90
2022-10-19T15:01:27.315Z,12.57
2022-10-19T15:03:29.811Z,11.35
2022-10-19T15:05:34.214Z,9.98
2022-10-19T15:07:39.098Z,10.50
2022-10-19T15:09:48.627Z,10.55
2022-10-19T15:11:51.025Z,10.80
2022-10-19T15:14:13.189Z,10.07
2022-10-19T15:16:39.186Z,9.52
2022-10-19T15:18:49.184Z,9.90
2022-10-19T15:21:12.340Z,9.68
2022-10-19T15:23:33.201Z,10.25
2022-10-19T15:25:39.547Z,9.60
2022-10-19T15:27:45.494Z,9.25
2022-10-19T15:30:04.454Z,10.50
2022-10-19T15:32:14.587Z,9.25
2022-10-19T15:34:23.383Z,9.32
2022-10-19T15:36:26.298Z,8.65
2022-10-19T15:38:27.997Z,7.80
2022-10-19T15:40:43.347Z,8.77
2022-10-19T15:42:46.872Z,9.10
2022-10-19T15:44:48.365Z,8.25
2022-10-19T15:46:49.790Z,8.00
2022-10-19T15:48:55.916Z,9.07
2022-10-19T15:50:57.696Z,7.65
2022-10-19T15:52:59.378Z,8.02
2022-10-19T15:55:01.606Z,7.90
2022-10-19T15:57:03.185Z,7.43
2022-10-19T15:59:10.144Z,7.57
2022-10-19T16:01:16.463Z,9.65
2022-10-19T16:03:17.991Z,10.20
2022-10-19T16:05:19.446Z,8.27
2022-10-19T16:07:30.653Z,8.85
2022-10-19T16:09:32.150Z,7.55
2022-10-19T16:11:35.335Z,7.80
2022-10-19T16:13:36.967Z,8.60
2022-10-19T16:15:38.480Z,7.57
2022-10-19T16:17:40.319Z,6.93
2022-10-19T16:19:42.875Z,8.25
2022-10-19T16:21:49.324Z,6.93
2022-10-19T16:23:52.164Z,6.53
2022-10-19T16:25:53.778Z,6.22
2022-10-19T16:27:55.253Z,6.75
2022-10-19T16:29:56.751Z,7.00
2022-10-19T16:31:58.284Z,6.40
2022-10-19T16:33:59.868Z,6.90
2022-10-19T16:36:07.355Z,6.80
2022-10-19T16:38:08.820Z,6.95
2022-10-19T16:40:10.647Z,7.03
2022-10-19T16:42:12.208Z,6.90
2022-10-19T16:44:13.744Z,6.88
2022-10-19T16:46:15.228Z,9.85
2022-10-19T16:48:18.931Z,9.90
2022-10-19T16:50:23.910Z,7.22
2022-10-19T16:52:26.859Z,8.52
2022-10-19T16:54:30.096Z,8.35
2022-10-19T16:56:32.356Z,7.97
2022-10-19T16:58:33.881Z,8.00
2022-10-19T17:00:35.935Z,7.68
2022-10-19T17:02:39.849Z,8.05
2022-10-19T17:04:44.503Z,8.25
2022-10-19T17:06:46.138Z,8.18
2022-10-19T17:11:19.218Z,7.72
2022-10-19T17:13:20.674Z,8.00
2022-10-19T17:15:41.989Z,8.63
2022-10-19T17:17:43.663Z,8.18
2022-10-19T17:19:45.242Z,7.90
2022-10-19T17:21:48.289Z,8.95
2022-10-19T17:23:55.614Z,9.18
2022-10-19T17:25:57.085Z,8.52
2022-10-19T17:27:58.562Z,8.07
2022-10-19T17:30:00.033Z,8.48
2022-10-19T17:32:01.572Z,7.90
2022-10-19T17:34:04.079Z,8.25
2022-10-19T17:36:17.011Z,8.32
2022-10-19T17:38:18.529Z,7.82
2022-10-19T17:40:20.250Z,8.57
2022-10-19T17:42:21.881Z,9.30
2022-10-19T17:44:23.497Z,10.52
2022-10-19T17:46:27.422Z,9.15
2022-10-19T17:48:29.610Z,7.70
2022-10-19T17:50:31.119Z,7.57
2022-10-19T17:52:32.568Z,8.45
2022-10-19T17:54:43.475Z,8.13
2022-10-19T17:56:55.638Z,8.18
2022-10-19T17:58:58.125Z,8.68
2022-10-19T18:01:00.206Z,8.52
2022-10-19T18:03:01.685Z,7.53
2022-10-19T18:05:03.267Z,9.55
2022-10-19T18:07:04.802Z,8.50
2022-10-19T18:09:08.671Z,8.43
2022-10-19T18:11:16.236Z,8.05
2022-10-19T18:13:17.766Z,7.95
2022-10-19T18:15:19.288Z,8.68
2022-10-19T18:17:24.086Z,8.10
2022-10-19T18:19:28.545Z,8.55
2022-10-19T18:21:35.829Z,7.70
2022-10-19T18:23:37.817Z,6.97
2022-10-19T18:25:53.376Z,7.88
2022-10-19T18:27:55.629Z,8.20
2022-10-19T18:29:57.103Z,7.93
2022-10-19T18:31:58.730Z,9.55
2022-10-19T18:34:02.727Z,7.50
2022-10-19T18:36:05.161Z,7.97
2022-10-19T18:38:07.356Z,8.32
2022-10-19T18:40:10.470Z,8.50
2022-10-19T18:42:12.741Z,8.45
2022-10-19T18:44:14.378Z,7.72
2022-10-19T18:46:18.921Z,7.45
2022-10-19T18:48:21.414Z,7.63
2022-10-19T18:50:23.045Z,8.02
2022-10-19T18:52:24.558Z,8.20
2022-10-19T18:54:27.888Z,9.27
2022-10-19T18:56:29.546Z,9.40
2022-10-19T18:58:31.489Z,9.57
2022-10-19T19:00:33.005Z,8.88
2022-10-19T19:02:46.602Z,11.25
2022-10-19T19:04:48.626Z,9.75
2022-10-19T19:06:50.154Z,10.43
2022-10-19T19:08:54.582Z,10.68
2022-10-19T19:10:56.928Z,9.15
2022-10-19T19:12:58.376Z,10.60
2022-10-19T19:14:59.914Z,10.35
2022-10-19T19:17:01.452Z,10.05
2022-10-19T19:19:03.846Z,10.25
2022-10-19T19:21:13.955Z,10.05
2022-10-19T19:23:15.443Z,10.18
2022-10-19T19:25:17.022Z,11.23
2022-10-19T19:27:18.809Z,10.43
2022-10-19T19:29:21.237Z,11.15
2022-10-19T19:31:22.808Z,10.75
2022-10-19T19:33:24.432Z,11.18
2022-10-19T19:35:26.072Z,11.45
2022-10-19T19:37:27.578Z,10.70
2022-10-19T19:39:29.125Z,11.15
2022-10-19T19:41:32.533Z,11.02
2022-10-19T19:43:36.996Z,11.85
2022-10-19T19:45:38.807Z,12.23
2022-10-19T19:47:40.406Z,12.73
2022-10-19T19:49:41.893Z,14.77
2022-10-19T19:51:43.395Z,16.55
2022-10-19T19:53:45.252Z,17.50
2022-10-19T19:55:48.392Z,15.23
2022-10-19T19:57:50.076Z,15.43
2022-10-19T19:59:51.570Z,13.82
2022-10-19T20:01:53.074Z,14.13
2022-10-19T20:03:54.945Z,13.50
2022-10-19T20:06:02.002Z,14.30
2022-10-19T20:08:03.522Z,14.30
2022-10-19T20:10:05.283Z,15.02
2022-10-19T20:12:06.751Z,14.35
2022-10-19T20:14:08.305Z,16.38
2022-10-19T20:16:15.420Z,16.05
2022-10-19T20:18:17.004Z,14.77
2022-10-19T20:20:18.629Z,17.08
2022-10-19T20:24:26.909Z,15.82
2022-10-19T20:26:29.401Z,16.35
2022-10-19T20:28:34.040Z,16.23
2022-10-19T20:30:36.120Z,15.30
2022-10-19T20:32:38.044Z,16.13
2022-10-19T20:34:39.772Z,16.23
2022-10-19T20:36:41.479Z,16.27
2022-10-19T20:38:57.318Z,16.75
2022-10-19T20:41:01.030Z,15.55
2022-10-19T20:43:04.732Z,15.77
2022-10-19T20:45:06.577Z,17.88
2022-10-19T20:47:08.357Z,16.17
2022-10-19T20:49:10.526Z,15.20
2022-10-19T20:51:17.122Z,14.65
2022-10-19T20:53:18.827Z,14.80
2022-10-19T20:55:22.006Z,15.48
2022-10-19T20:57:23.499Z,16.13
2022-10-19T20:59:27.796Z,18.05
2022-10-19T21:01:31.720Z,17.38
2022-10-19T21:03:33.370Z,18.55
2022-10-19T21:05:37.973Z,15.55
2022-10-19T21:07:39.479Z,16.75
2022-10-19T21:09:41.036Z,16.10
2022-10-19T21:11:44.048Z,16.20
2022-10-19T21:13:46.546Z,15.95
2022-10-19T21:15:48.018Z,16.02
2022-10-19T21:17:49.733Z,17.20
2022-10-19T21:19:52.088Z,16.95
2022-10-19T21:21:56.581Z,16.52
2022-10-19T21:24:01.028Z,15.15
2022-10-19T21:26:02.473Z,15.88
2022-10-19T21:28:04.028Z,16.98
2022-10-19T21:30:05.922Z,16.52
2022-10-19T21:32:07.483Z,17.80
2022-10-19T21:34:12.245Z,15.27
2022-10-19T21:36:14.791Z,16.75
2022-10-19T21:38:16.356Z,17.00
2022-10-19T21:40:17.874Z,16.52
2022-10-19T21:42:19.348Z,17.80
2022-10-19T21:44:23.152Z,15.77
2022-10-19T21:46:25.807Z,16.27
2022-10-19T21:48:27.260Z,17.83
2022-10-19T21:50:28.802Z,16.92
2022-10-19T21:52:30.265Z,16.15
2022-10-19T21:54:31.744Z,16.67
2022-10-19T21:56:33.691Z,16.92
2022-10-19T21:58:35.152Z,16.17
2022-10-19T22:00:37.210Z,15.90
2022-10-19T22:02:38.677Z,14.30
2022-10-19T22:04:40.212Z,14.02
2022-10-19T22:06:42.378Z,16.35
2022-10-19T22:08:46.092Z,15.85
2022-10-19T22:10:47.668Z,14.55
2022-10-19T22:12:49.391Z,15.73
2022-10-19T22:14:50.916Z,15.20
2022-10-19T22:16:52.489Z,15.73
2022-10-19T22:18:54.055Z,13.68
2022-10-19T22:20:55.552Z,13.60
2022-10-19T22:22:56.998Z,14.27
2022-10-19T22:24:58.471Z,16.42
2022-10-19T22:27:00.060Z,15.45
2022-10-19T22:29:02.219Z,13.85
2022-10-19T22:31:03.715Z,15.50
2022-10-19T22:33:05.207Z,16.45
2022-10-19T22:35:06.871Z,14.70
2022-10-19T22:37:08.330Z,16.17
2022-10-19T22:39:11.334Z,15.25
2022-10-19T22:41:12.762Z,17.48
2022-10-19T22:43:14.258Z,16.85
2022-10-19T22:45:15.822Z,14.88
2022-10-19T22:47:17.283Z,17.23
2022-10-19T22:49:18.905Z,16.02
2022-10-19T22:51:20.346Z,16.35
2022-10-19T22:53:22.845Z,16.83
2022-10-19T22:55:24.740Z,16.17
2022-10-19T22:57:26.205Z,17.42
2022-10-19T22:59:27.947Z,17.70
2022-10-19T23:01:29.456Z,17.60
2022-10-19T23:03:31.220Z,16.98
2022-10-19T23:05:32.759Z,16.40
2022-10-19T23:07:34.485Z,18.48
2022-10-19T23:09:36.140Z,17.25
2022-10-19T23:11:37.650Z,16.30
2022-10-19T23:13:39.752Z,16.05
2022-10-19T23:15:43.923Z,18.05
2022-10-19T23:17:45.682Z,17.00
2022-10-19T23:19:47.162Z,16.67
2022-10-19T23:21:48.714Z,17.75
2022-10-19T23:23:50.182Z,17.95
2022-10-19T23:25:58.152Z,17.20
2022-10-19T23:27:59.626Z,16.92
2022-10-19T23:30:01.345Z,18.00
2022-10-19T23:32:02.830Z,16.15
2022-10-19T23:34:04.307Z,17.45
2022-10-19T23:36:12.553Z,18.05
2022-10-19T23:38:14.181Z,17.15
2022-10-19T23:40:15.731Z,19.02
2022-10-19T23:42:17.229Z,18.20
2022-10-19T23:44:18.715Z,16.58
2022-10-19T23:46:20.230Z,16.75
2022-10-19T23:48:22.094Z,17.90
2022-10-19T23:50:23.622Z,17.33
2022-10-19T23:52:26.141Z,17.77
2022-10-19T23:54:27.639Z,18.08
2022-10-19T23:56:29.535Z,19.00
2022-10-19T23:58:31.562Z,17.00
